createdAt,value
2018-08-19T00:02:23.332Z,4.92
2018-08-19T00:05:08.954Z,4.83
2018-08-19T00:07:38.401Z,5.47
2018-08-19T00:10:08.193Z,5.95
2018-08-19T00:12:44.536Z,4.97
2018-08-19T00:15:14.539Z,4.65
2018-08-19T00:17:44.282Z,6.12
2018-08-19T00:20:14.528Z,6.95
2018-08-19T00:22:44.068Z,6.05
2018-08-19T00:25:29.137Z,6.75
2018-08-19T00:27:58.585Z,6.60
2018-08-19T00:30:29.824Z,7.28
2018-08-19T00:32:59.749Z,5.62
2018-08-19T00:35:29.724Z,5.72
2018-08-19T00:37:59.812Z,4.90
2018-08-19T00:40:29.521Z,4.85
2018-08-19T00:42:59.433Z,5.33
2018-08-19T00:45:29.793Z,5.72
2018-08-19T00:47:59.232Z,6.15
2018-08-19T00:50:28.745Z,6.97
2018-08-19T00:52:58.203Z,5.55
2018-08-19T00:55:31.037Z,5.33
2018-08-19T00:58:00.689Z,4.55
2018-08-19T01:00:30.248Z,4.25
2018-08-19T01:02:59.796Z,5.33
2018-08-19T01:05:29.314Z,4.70
2018-08-19T01:07:58.824Z,3.90
2018-08-19T01:10:28.346Z,4.75
2018-08-19T01:12:57.728Z,4.37
2018-08-19T01:15:27.076Z,5.05
2018-08-19T01:17:57.901Z,4.78
2018-08-19T01:20:27.408Z,4.65
2018-08-19T01:22:56.805Z,4.83
2018-08-19T01:25:26.278Z,4.42
2018-08-19T01:27:55.709Z,4.22
2018-08-19T01:30:26.903Z,5.05
2018-08-19T01:32:56.316Z,5.08
2018-08-19T01:35:31.055Z,4.75
2018-08-19T01:38:00.646Z,4.92
2018-08-19T01:40:30.020Z,4.50
2018-08-19T01:42:59.400Z,4.67
2018-08-19T01:45:28.762Z,4.15
2018-08-19T01:47:58.287Z,4.75
2018-08-19T01:50:27.700Z,5.28
2018-08-19T01:52:57.133Z,5.37
2018-08-19T01:55:26.644Z,5.58
2018-08-19T01:57:57.102Z,4.42
2018-08-19T02:00:26.500Z,5.40
2018-08-19T02:03:03.116Z,4.17
2018-08-19T02:05:32.544Z,5.15
2018-08-19T02:08:03.147Z,7.12
2018-08-19T02:10:34.360Z,4.75
2018-08-19T02:13:03.856Z,4.47
2018-08-19T02:15:33.820Z,4.83
2018-08-19T02:18:04.656Z,5.15
2018-08-19T02:20:38.004Z,4.60
2018-08-19T02:23:09.414Z,4.37
2018-08-19T02:25:46.741Z,4.53
2018-08-19T02:28:20.803Z,4.25
2018-08-19T02:31:00.037Z,4.75
2018-08-19T02:33:33.667Z,4.58
2018-08-19T02:36:05.901Z,4.95
2018-08-19T02:38:36.112Z,3.85
2018-08-19T02:41:06.475Z,6.58
2018-08-19T02:43:42.165Z,4.55
2018-08-19T02:46:11.704Z,4.85
2018-08-19T02:48:49.281Z,4.97
2018-08-19T02:51:19.843Z,4.75
2018-08-19T02:53:50.487Z,5.35
2018-08-19T02:56:20.503Z,5.00
2018-08-19T02:58:49.928Z,5.20
2018-08-19T03:01:19.341Z,5.12
2018-08-19T03:03:48.808Z,5.08
2018-08-19T03:06:18.333Z,4.62
2018-08-19T03:08:54.796Z,6.78
2018-08-19T03:11:24.170Z,5.95
2018-08-19T03:13:53.630Z,6.33
2018-08-19T03:16:23.049Z,8.63
2018-08-19T03:18:53.393Z,7.58
2018-08-19T03:21:23.265Z,12.98
2018-08-19T03:23:53.813Z,12.23
2018-08-19T03:26:23.212Z,14.90
2018-08-19T03:28:52.599Z,13.93
2018-08-19T03:31:22.035Z,19.62
2018-08-19T03:33:51.413Z,29.35
2018-08-19T03:36:20.849Z,23.05
2018-08-19T03:38:50.246Z,23.22
2018-08-19T03:41:19.685Z,18.57
2018-08-19T03:43:53.214Z,15.72
2018-08-19T03:46:22.774Z,13.38
2018-08-19T03:48:52.171Z,8.50
2018-08-19T03:51:21.549Z,10.00
2018-08-19T03:53:51.000Z,6.87
2018-08-19T03:56:26.195Z,6.97
2018-08-19T03:58:59.843Z,6.30
2018-08-19T04:01:43.304Z,5.95
2018-08-19T04:04:14.712Z,5.33
2018-08-19T04:06:44.415Z,5.78
2018-08-19T04:09:13.836Z,5.20
2018-08-19T04:11:43.271Z,6.03
2018-08-19T04:14:27.551Z,7.10
2018-08-19T04:17:01.244Z,5.55
2018-08-19T04:19:30.990Z,6.25
2018-08-19T04:22:02.680Z,6.20
2018-08-19T04:24:32.541Z,5.50
2018-08-19T04:27:12.600Z,5.00
2018-08-19T04:29:41.982Z,5.00
2018-08-19T04:32:19.316Z,5.47
2018-08-19T04:34:48.686Z,5.03
2018-08-19T04:37:18.097Z,5.53
2018-08-19T04:39:47.541Z,5.67
2018-08-19T04:42:17.019Z,5.28
2018-08-19T04:44:46.361Z,5.80
2018-08-19T04:47:27.998Z,5.37
2018-08-19T04:49:57.407Z,6.92
2018-08-19T04:52:26.822Z,5.67
2018-08-19T04:54:57.067Z,4.92
2018-08-19T04:57:26.472Z,5.33
2018-08-19T04:59:55.913Z,6.72
2018-08-19T05:02:25.358Z,5.03
2018-08-19T05:04:54.725Z,5.97
2018-08-19T05:07:24.184Z,6.05
2018-08-19T05:09:53.577Z,5.75
2018-08-19T05:12:22.978Z,6.22
2018-08-19T05:14:52.438Z,6.45
2018-08-19T05:17:21.811Z,5.70
2018-08-19T05:19:54.053Z,6.28
2018-08-19T05:22:23.595Z,6.20
2018-08-19T05:24:52.932Z,7.10
2018-08-19T05:27:22.380Z,6.15
2018-08-19T05:29:51.773Z,6.87
2018-08-19T05:32:21.181Z,7.72
2018-08-19T05:34:50.560Z,7.37
2018-08-19T05:37:19.974Z,6.87
2018-08-19T05:39:57.510Z,8.00
2018-08-19T05:42:27.102Z,7.15
2018-08-19T05:44:56.616Z,7.97
2018-08-19T05:47:26.053Z,7.70
2018-08-19T05:49:55.364Z,7.70
2018-08-19T05:52:24.902Z,7.05
2018-08-19T05:54:55.592Z,6.85
2018-08-19T05:57:24.978Z,7.03
2018-08-19T05:59:55.017Z,7.05
2018-08-19T06:02:32.758Z,6.70
2018-08-19T06:05:04.173Z,7.15
2018-08-19T06:07:33.657Z,7.40
2018-08-19T06:10:02.987Z,7.25
2018-08-19T06:12:32.357Z,6.75
2018-08-19T06:15:02.419Z,7.60
2018-08-19T06:17:31.803Z,6.87
2018-08-19T06:20:01.358Z,7.15
2018-08-19T06:22:39.009Z,6.50
2018-08-19T06:25:08.986Z,6.70
2018-08-19T06:27:48.542Z,6.35
2018-08-19T06:30:19.242Z,7.83
2018-08-19T06:32:48.732Z,6.55
2018-08-19T06:35:18.487Z,5.83
2018-08-19T06:37:48.014Z,5.80
2018-08-19T06:40:19.522Z,5.97
2018-08-19T06:42:48.957Z,6.45
2018-08-19T06:45:18.393Z,6.33
2018-08-19T06:47:47.968Z,7.20
2018-08-19T06:50:25.227Z,6.05
2018-08-19T06:52:55.685Z,10.78
2018-08-19T06:55:25.230Z,6.65
2018-08-19T06:57:59.477Z,6.58
2018-08-19T07:00:30.073Z,7.00
2018-08-19T07:03:02.253Z,5.80
2018-08-19T07:05:32.406Z,5.90
2018-08-19T07:08:02.141Z,7.42
2018-08-19T07:10:37.793Z,7.03
2018-08-19T07:13:11.994Z,5.70
2018-08-19T07:15:42.517Z,6.65
2018-08-19T07:18:14.781Z,5.80
2018-08-19T07:20:45.031Z,5.75
2018-08-19T07:23:14.521Z,5.17
2018-08-19T07:25:45.167Z,5.83
2018-08-19T07:28:16.589Z,6.28
2018-08-19T07:30:46.037Z,5.30
2018-08-19T07:33:15.474Z,5.95
2018-08-19T07:35:44.875Z,6.12
2018-08-19T07:38:14.367Z,5.95
2018-08-19T07:40:43.815Z,5.87
2018-08-19T07:43:13.341Z,6.10
2018-08-19T07:45:42.738Z,5.08
2018-08-19T07:48:12.303Z,6.08
2018-08-19T07:50:41.728Z,5.17
2018-08-19T07:53:11.256Z,5.28
2018-08-19T07:55:40.585Z,5.85
2018-08-19T07:58:10.077Z,5.17
2018-08-19T08:00:40.236Z,4.05
2018-08-19T08:03:10.028Z,4.80
2018-08-19T08:05:44.557Z,4.50
2018-08-19T08:08:14.054Z,4.90
2018-08-19T08:10:43.521Z,4.45
2018-08-19T08:13:13.680Z,4.70
2018-08-19T08:15:48.464Z,5.95
2018-08-19T08:18:18.017Z,4.47
2018-08-19T08:20:47.401Z,5.00
2018-08-19T08:23:23.523Z,4.45
2018-08-19T08:25:52.918Z,4.25
2018-08-19T08:28:22.309Z,5.47
2018-08-19T08:30:51.704Z,4.95
2018-08-19T08:33:21.134Z,5.90
2018-08-19T08:35:56.199Z,6.47
2018-08-19T08:38:25.618Z,5.80
2018-08-19T08:40:55.394Z,5.95
2018-08-19T08:43:24.821Z,5.85
2018-08-19T08:45:57.277Z,5.95
2018-08-19T08:48:26.987Z,6.50
2018-08-19T08:50:56.634Z,7.45
2018-08-19T08:53:34.328Z,6.20
2018-08-19T08:56:04.089Z,5.55
2018-08-19T08:58:33.716Z,4.42
2018-08-19T09:01:03.357Z,4.15
2018-08-19T09:03:32.768Z,4.92
2018-08-19T09:06:02.165Z,4.40
2018-08-19T09:08:31.624Z,4.25
2018-08-19T09:11:02.872Z,4.25
2018-08-19T09:13:32.254Z,3.80
2018-08-19T09:16:01.642Z,3.42
2018-08-19T09:18:31.070Z,4.80
2018-08-19T09:21:00.513Z,5.05
2018-08-19T09:23:30.057Z,4.20
2018-08-19T09:25:59.331Z,4.72
2018-08-19T09:28:28.714Z,4.05
2018-08-19T09:30:58.084Z,6.20
2018-08-19T09:33:27.467Z,4.20
2018-08-19T09:35:56.858Z,4.95
2018-08-19T09:38:26.231Z,4.40
2018-08-19T09:40:55.592Z,5.78
2018-08-19T09:43:25.000Z,4.20
2018-08-19T09:45:54.368Z,3.77
2018-08-19T09:48:23.757Z,5.10
2018-08-19T09:50:53.451Z,4.58
2018-08-19T09:53:22.853Z,3.98
2018-08-19T09:55:57.484Z,4.03
2018-08-19T09:58:26.812Z,5.78
2018-08-19T10:01:01.298Z,5.00
2018-08-19T10:03:32.897Z,6.17
2018-08-19T10:06:04.204Z,4.62
2018-08-19T10:08:33.733Z,4.75
2018-08-19T10:11:03.247Z,4.00
2018-08-19T10:13:32.807Z,4.37
2018-08-19T10:16:02.176Z,4.72
2018-08-19T10:18:31.848Z,3.17
2018-08-19T10:21:05.436Z,3.15
2018-08-19T10:23:34.812Z,2.77
2018-08-19T10:26:04.329Z,2.85
2018-08-19T10:28:33.787Z,5.50
2018-08-19T10:31:03.243Z,3.05
2018-08-19T10:33:32.633Z,2.87
2018-08-19T10:36:01.992Z,3.62
2018-08-19T10:38:31.377Z,3.37
2018-08-19T10:41:05.472Z,4.65
2018-08-19T10:43:34.920Z,4.15
2018-08-19T10:46:04.379Z,5.25
2018-08-19T10:48:33.751Z,4.30
2018-08-19T10:51:04.347Z,4.08
2018-08-19T10:53:33.722Z,4.22
2018-08-19T10:56:03.914Z,22.67
2018-08-19T10:58:33.528Z,61.02
2018-08-19T11:01:02.869Z,36.10
2018-08-19T11:03:32.234Z,62.35
2018-08-19T11:06:01.706Z,38.38
2018-08-19T11:08:31.221Z,39.33
2018-08-19T11:11:00.721Z,52.05
2018-08-19T11:13:30.331Z,33.13
2018-08-19T11:15:59.731Z,31.45
2018-08-19T11:18:39.502Z,30.08
2018-08-19T11:21:15.783Z,21.62
2018-08-19T11:23:47.237Z,23.90
2018-08-19T11:26:16.833Z,16.02
2018-08-19T11:28:54.788Z,17.95
2018-08-19T11:31:29.653Z,22.37
2018-08-19T11:34:08.112Z,19.07
2018-08-19T11:36:44.281Z,20.30
2018-08-19T11:39:15.494Z,7.33
2018-08-19T11:41:44.983Z,8.98
2018-08-19T11:44:16.281Z,9.93
2018-08-19T11:46:45.958Z,10.30
2018-08-19T11:49:16.894Z,7.75
2018-08-19T11:51:59.808Z,5.22
2018-08-19T11:54:30.310Z,8.38
2018-08-19T11:57:06.469Z,6.97
2018-08-19T11:59:40.092Z,6.28
2018-08-19T12:02:13.606Z,5.10
2018-08-19T12:04:43.501Z,5.35
2018-08-19T12:07:12.953Z,6.80
2018-08-19T12:09:46.416Z,7.45
2018-08-19T12:12:15.886Z,7.42
2018-08-19T12:14:45.350Z,5.95
2018-08-19T12:17:14.829Z,5.00
2018-08-19T12:19:44.749Z,4.47
2018-08-19T12:22:14.216Z,6.53
2018-08-19T12:24:46.512Z,5.30
2018-08-19T12:27:17.452Z,5.72
2018-08-19T12:29:47.394Z,5.00
2018-08-19T12:32:27.174Z,8.88
2018-08-19T12:34:58.756Z,4.12
2018-08-19T12:37:29.654Z,4.08
2018-08-19T12:39:59.758Z,4.12
2018-08-19T12:42:29.992Z,4.72
2018-08-19T12:45:03.739Z,5.78
2018-08-19T12:47:33.201Z,6.42
2018-08-19T12:50:08.047Z,4.90
2018-08-19T12:52:37.409Z,5.37
2018-08-19T12:55:08.662Z,4.72
2018-08-19T12:57:39.092Z,5.40
2018-08-19T13:00:25.055Z,3.40
2018-08-19T13:02:54.855Z,3.25
2018-08-19T13:05:24.617Z,4.17
2018-08-19T13:07:54.180Z,4.00
2018-08-19T13:10:24.090Z,4.62
2018-08-19T13:12:58.157Z,3.33
2018-08-19T13:15:29.906Z,4.00
2018-08-19T13:17:59.450Z,3.30
2018-08-19T13:20:28.824Z,3.67
2018-08-19T13:23:02.504Z,3.25
2018-08-19T13:25:32.369Z,3.50
2018-08-19T13:28:01.737Z,3.15
2018-08-19T13:30:31.130Z,3.40
2018-08-19T13:33:00.660Z,5.97
2018-08-19T13:35:30.191Z,3.87
2018-08-19T13:37:59.689Z,6.33
2018-08-19T13:40:29.198Z,3.65
2018-08-19T13:42:58.820Z,3.00
2018-08-19T13:45:28.717Z,2.90
2018-08-19T13:47:58.125Z,3.25
2018-08-19T13:50:27.643Z,3.00
2018-08-19T13:52:57.100Z,3.02
2018-08-19T13:55:26.880Z,3.17
2018-08-19T13:57:56.371Z,2.87
2018-08-19T14:00:29.974Z,3.15
2018-08-19T14:02:59.301Z,2.95
2018-08-19T14:05:28.854Z,3.12
2018-08-19T14:07:58.320Z,2.65
2018-08-19T14:10:28.039Z,3.10
2018-08-19T14:12:57.441Z,3.10
2018-08-19T14:15:26.908Z,3.35
2018-08-19T14:17:56.454Z,3.10
2018-08-19T14:20:25.888Z,3.02
2018-08-19T14:22:55.800Z,3.42
2018-08-19T14:25:25.295Z,3.02
2018-08-19T14:27:54.781Z,3.05
2018-08-19T14:30:24.332Z,3.15
2018-08-19T14:32:53.730Z,2.95
2018-08-19T14:35:23.130Z,3.10
2018-08-19T14:37:52.566Z,3.08
2018-08-19T14:40:22.292Z,2.35
2018-08-19T14:42:51.643Z,2.55
2018-08-19T14:45:21.085Z,2.98
2018-08-19T14:47:50.538Z,2.58
2018-08-19T14:50:20.640Z,2.52
2018-08-19T14:52:50.192Z,2.25
2018-08-19T14:55:19.564Z,2.42
2018-08-19T14:57:49.095Z,2.33
2018-08-19T15:00:18.816Z,3.37
2018-08-19T15:02:48.642Z,2.33
2018-08-19T15:05:21.445Z,2.50
2018-08-19T15:07:50.827Z,3.33
2018-08-19T15:10:25.572Z,2.77
2018-08-19T15:12:54.968Z,2.67
2018-08-19T15:15:24.338Z,2.75
2018-08-19T15:17:59.829Z,2.55
2018-08-19T15:20:35.926Z,2.67
2018-08-19T15:23:17.249Z,3.00
2018-08-19T15:25:46.964Z,2.33
2018-08-19T15:28:17.375Z,3.02
2018-08-19T15:30:46.793Z,3.08
2018-08-19T15:33:16.908Z,2.77
2018-08-19T15:35:46.452Z,2.55
2018-08-19T15:38:15.828Z,2.70
2018-08-19T15:40:47.899Z,2.70
2018-08-19T15:43:17.393Z,2.85
2018-08-19T15:45:46.926Z,2.92
2018-08-19T15:48:16.398Z,2.80
2018-08-19T15:50:45.792Z,2.70
2018-08-19T15:53:17.296Z,2.50
2018-08-19T15:55:46.804Z,3.10
2018-08-19T15:58:16.303Z,3.17
2018-08-19T16:00:45.792Z,2.80
2018-08-19T16:03:15.246Z,2.92
2018-08-19T16:05:44.725Z,2.60
2018-08-19T16:08:14.224Z,3.00
2018-08-19T16:10:44.229Z,2.70
2018-08-19T16:13:13.665Z,3.58
2018-08-19T16:15:43.191Z,3.40
2018-08-19T16:18:13.016Z,3.98
2018-08-19T16:20:49.711Z,3.10
2018-08-19T16:23:19.256Z,3.40
2018-08-19T16:25:48.785Z,4.08
2018-08-19T16:28:19.169Z,3.05
2018-08-19T16:30:48.647Z,3.30
2018-08-19T16:33:18.325Z,3.27
2018-08-19T16:35:48.048Z,3.00
2018-08-19T16:38:17.673Z,3.33
2018-08-19T16:40:47.065Z,3.27
2018-08-19T16:43:16.627Z,3.10
2018-08-19T16:45:46.528Z,3.05
2018-08-19T16:48:16.092Z,2.83
2018-08-19T16:50:45.485Z,3.15
2018-08-19T16:53:15.617Z,3.15
2018-08-19T16:55:45.027Z,2.87
2018-08-19T16:58:14.443Z,2.77
2018-08-19T17:00:43.935Z,2.90
2018-08-19T17:03:29.631Z,4.92
2018-08-19T17:05:59.157Z,4.33
2018-08-19T17:08:28.865Z,5.35
2018-08-19T17:10:58.331Z,8.98
2018-08-19T17:13:27.647Z,5.80
2018-08-19T17:15:57.122Z,3.40
2018-08-19T17:18:26.456Z,3.08
2018-08-19T17:20:55.974Z,2.47
2018-08-19T17:23:25.872Z,5.87
2018-08-19T17:25:55.374Z,2.85
2018-08-19T17:28:26.349Z,6.28
2018-08-19T17:30:55.864Z,6.65
2018-08-19T17:33:29.615Z,3.50
2018-08-19T17:35:59.497Z,7.47
2018-08-19T17:38:34.373Z,4.35
2018-08-19T17:41:04.356Z,4.03
2018-08-19T17:43:39.101Z,3.35
2018-08-19T17:46:12.901Z,3.15
2018-08-19T17:48:43.328Z,2.80
2018-08-19T17:51:27.981Z,3.10
2018-08-19T17:53:57.461Z,2.80
2018-08-19T17:56:27.084Z,4.17
2018-08-19T17:58:56.673Z,3.00
2018-08-19T18:01:26.171Z,2.83
2018-08-19T18:03:55.667Z,2.87
2018-08-19T18:06:26.069Z,2.85
2018-08-19T18:08:55.626Z,2.70
2018-08-19T18:11:25.044Z,3.08
2018-08-19T18:13:54.410Z,3.08
2018-08-19T18:16:23.961Z,3.08
2018-08-19T18:18:53.515Z,3.30
2018-08-19T18:21:23.065Z,4.53
2018-08-19T18:23:53.408Z,3.08
2018-08-19T18:26:22.811Z,2.90
2018-08-19T18:28:52.220Z,2.80
2018-08-19T18:31:23.276Z,2.42
2018-08-19T18:33:59.698Z,2.65
2018-08-19T18:36:31.710Z,2.80
2018-08-19T18:39:01.483Z,2.45
2018-08-19T18:41:38.220Z,4.12
2018-08-19T18:44:09.565Z,3.33
2018-08-19T18:46:39.057Z,3.02
2018-08-19T18:49:15.181Z,2.72
2018-08-19T18:51:49.102Z,2.20
2018-08-19T18:54:29.648Z,2.70
2018-08-19T18:57:03.869Z,2.60
2018-08-19T18:59:33.332Z,2.72
2018-08-19T19:02:04.035Z,3.02
2018-08-19T19:04:33.602Z,2.92
2018-08-19T19:07:03.175Z,2.92
2018-08-19T19:09:38.990Z,3.35
2018-08-19T19:12:08.575Z,3.22
2018-08-19T19:14:39.649Z,2.95
2018-08-19T19:17:09.292Z,3.98
2018-08-19T19:19:43.787Z,3.70
2018-08-19T19:22:13.341Z,3.55
2018-08-19T19:24:43.802Z,3.20
2018-08-19T19:27:13.490Z,3.37
2018-08-19T19:29:45.037Z,3.50
2018-08-19T19:32:23.260Z,3.08
2018-08-19T19:34:53.005Z,3.37
2018-08-19T19:37:22.661Z,3.65
2018-08-19T19:39:57.328Z,4.03
2018-08-19T19:42:26.913Z,3.85
2018-08-19T19:44:56.512Z,4.03
2018-08-19T19:47:26.037Z,3.05
2018-08-19T19:49:57.917Z,3.60
2018-08-19T19:52:29.046Z,3.70
2018-08-19T19:54:58.494Z,3.58
2018-08-19T19:57:27.852Z,3.70
2018-08-19T19:59:57.289Z,3.40
2018-08-19T20:02:29.504Z,3.12
2018-08-19T20:04:59.209Z,5.65
2018-08-19T20:07:29.261Z,3.47
2018-08-19T20:09:58.769Z,5.60
2018-08-19T20:12:29.020Z,3.30
2018-08-19T20:15:01.030Z,5.15
2018-08-19T20:17:30.697Z,3.40
2018-08-19T20:20:00.260Z,3.42
2018-08-19T20:22:29.719Z,3.62
2018-08-19T20:24:59.233Z,4.00
2018-08-19T20:27:28.833Z,3.50
2018-08-19T20:29:58.394Z,3.70
2018-08-19T20:32:27.925Z,3.72
2018-08-19T20:34:57.377Z,3.45
2018-08-19T20:37:28.146Z,3.90
2018-08-19T20:39:57.641Z,3.60
2018-08-19T20:42:27.076Z,3.95
2018-08-19T20:44:56.457Z,4.05
2018-08-19T20:47:25.880Z,3.90
2018-08-19T20:49:55.221Z,4.05
2018-08-19T20:52:47.125Z,3.83
2018-08-19T20:55:16.849Z,3.67
2018-08-19T20:57:46.571Z,3.65
2018-08-19T21:00:16.078Z,3.25
2018-08-19T21:02:45.660Z,3.52
2018-08-19T21:05:15.164Z,3.58
2018-08-19T21:07:45.054Z,3.37
2018-08-19T21:10:14.614Z,3.42
2018-08-19T21:12:43.948Z,3.98
2018-08-19T21:15:13.500Z,3.50
2018-08-19T21:17:42.885Z,3.90
2018-08-19T21:20:12.305Z,3.27
2018-08-19T21:22:41.995Z,3.45
2018-08-19T21:25:11.439Z,3.62
2018-08-19T21:27:40.885Z,3.20
2018-08-19T21:30:10.387Z,3.92
2018-08-19T21:32:39.862Z,3.45
2018-08-19T21:35:09.687Z,3.27
2018-08-19T21:37:39.075Z,3.50
2018-08-19T21:40:08.509Z,3.42
2018-08-19T21:42:55.085Z,3.83
2018-08-19T21:45:25.004Z,3.42
2018-08-19T21:47:54.426Z,3.45
2018-08-19T21:50:23.865Z,4.03
2018-08-19T21:53:04.692Z,4.50
2018-08-19T21:55:37.239Z,4.62
2018-08-19T21:58:06.987Z,3.90
2018-08-19T22:00:47.892Z,3.35
2018-08-19T22:03:23.065Z,3.00
2018-08-19T22:05:53.429Z,4.03
2018-08-19T22:08:24.153Z,3.52
2018-08-19T22:10:53.748Z,3.65
2018-08-19T22:13:23.340Z,3.42
2018-08-19T22:15:52.748Z,3.60
2018-08-19T22:18:23.436Z,3.87
2018-08-19T22:21:07.697Z,3.40
2018-08-19T22:23:42.229Z,3.87
2018-08-19T22:26:12.857Z,5.17
2018-08-19T22:28:42.847Z,3.58
2018-08-19T22:31:26.601Z,3.62
2018-08-19T22:33:57.291Z,3.80
2018-08-19T22:36:27.104Z,3.30
2018-08-19T22:38:57.199Z,3.92
2018-08-19T22:41:29.977Z,3.45
2018-08-19T22:43:59.579Z,3.22
2018-08-19T22:46:29.304Z,3.65
2018-08-19T22:48:59.202Z,4.05
2018-08-19T22:51:33.448Z,4.00
2018-08-19T22:54:02.903Z,3.77
2018-08-19T22:56:32.328Z,3.45
2018-08-19T22:59:01.811Z,4.20
2018-08-19T23:01:36.516Z,4.08
2018-08-19T23:04:06.180Z,3.70
2018-08-19T23:06:35.613Z,3.47
2018-08-19T23:09:06.437Z,4.08
2018-08-19T23:11:41.048Z,3.47
2018-08-19T23:14:27.277Z,3.67
2018-08-19T23:16:56.816Z,3.40
2018-08-19T23:19:26.178Z,4.15
2018-08-19T23:21:55.550Z,4.10
2018-08-19T23:24:24.966Z,4.55
2018-08-19T23:26:54.332Z,4.05
2018-08-19T23:29:23.723Z,4.05
2018-08-19T23:31:53.120Z,4.42
2018-08-19T23:34:22.578Z,4.42
2018-08-19T23:36:52.883Z,3.75
2018-08-19T23:39:22.140Z,4.33
2018-08-19T23:41:51.461Z,4.08
2018-08-19T23:44:20.940Z,4.42
2018-08-19T23:46:50.326Z,3.70
2018-08-19T23:49:19.822Z,3.67
2018-08-19T23:51:49.319Z,3.90
2018-08-19T23:54:18.645Z,4.25
2018-08-19T23:56:48.144Z,4.17
2018-08-19T23:59:21.667Z,3.95
